Time;durP1;ratioP1;P1;durP2;ratioP2;P2;SDS_P1;SDS_P2;PMS_P1;PMS_P2;Temp;Humidity;BMP_temperature;BMP_pressure;BME280_temperature;BME280_humidity;BME280_pressure;Samples;Min_cycle;Max_cycle;Signal;HPM_P1;HPM_P2
2023/05/08 00:01:48;;;;;;;12.73;7.75;;;6.20;99.90;;;;;;2621932;46;20049;31
2023/05/08 00:04:28;;;;;;;10.40;7.87;;;6.20;99.90;;;;;;2603559;54;21660;31
2023/05/08 00:07:04;;;;;;;10.75;8.65;;;6.20;99.90;;;;;;2603280;54;21107;31
2023/05/08 00:09:43;;;;;;;9.40;7.17;;;6.10;99.90;;;;;;2602532;54;20019;31
2023/05/08 00:12:19;;;;;;;11.13;7.53;;;6.10;99.90;;;;;;2603130;54;20325;31
2023/05/08 00:14:56;;;;;;;10.68;7.53;;;6.00;99.90;;;;;;2602426;54;19957;31
2023/05/08 00:17:32;;;;;;;9.13;6.68;;;6.00;99.90;;;;;;2603048;54;20023;31
2023/05/08 00:20:17;;;;;;;13.90;6.90;;;5.90;99.90;;;;;;2603205;54;19951;31
2023/05/08 00:22:54;;;;;;;9.73;7.03;;;5.90;99.90;;;;;;2603320;54;20046;31
2023/05/08 00:25:34;;;;;;;10.10;7.68;;;5.90;99.90;;;;;;2602465;54;20376;31
2023/05/08 00:28:11;;;;;;;11.07;8.10;;;5.70;99.90;;;;;;2602404;54;20027;31
2023/05/08 00:30:49;;;;;;;9.45;7.32;;;5.80;99.90;;;;;;2603405;54;20795;31
2023/05/08 00:33:25;;;;;;;11.25;7.82;;;5.70;99.90;;;;;;2603434;54;20745;31
2023/05/08 00:36:06;;;;;;;11.68;8.38;;;5.70;99.90;;;;;;2603192;54;20878;31
2023/05/08 00:38:46;;;;;;;10.95;8.40;;;5.70;99.90;;;;;;2603164;54;20042;31
2023/05/08 00:43:57;;;;;;;13.10;8.65;;;5.60;99.90;;;;;;2606569;46;20244;31
2023/05/08 00:46:35;;;;;;;13.00;9.15;;;5.60;99.90;;;;;;2616012;46;20105;31
2023/05/08 00:49:13;;;;;;;15.63;10.52;;;5.50;99.90;;;;;;2603164;54;20525;31
2023/05/08 00:51:55;;;;;;;13.13;10.38;;;5.50;99.90;;;;;;2603030;54;20085;31
2023/05/08 00:54:33;;;;;;;16.70;10.65;;;5.40;99.90;;;;;;2602782;54;20951;31
2023/05/08 00:57:09;;;;;;;16.60;9.77;;;5.40;99.90;;;;;;2621376;46;20049;31
2023/05/08 00:59:47;;;;;;;13.65;9.98;;;5.40;99.90;;;;;;2621546;46;20022;31
2023/05/08 01:02:24;;;;;;;14.65;10.45;;;5.30;99.90;;;;;;2603026;54;20867;31
2023/05/08 01:05:02;;;;;;;11.43;9.10;;;5.30;99.90;;;;;;2602846;54;20139;31
2023/05/08 01:07:42;;;;;;;16.95;9.88;;;5.30;99.90;;;;;;2603015;54;20882;31
2023/05/08 01:10:21;;;;;;;12.88;9.68;;;5.20;99.90;;;;;;2603257;54;20732;31
2023/05/08 01:12:55;;;;;;;12.60;9.45;;;5.20;99.90;;;;;;2621866;46;20762;31
2023/05/08 01:15:45;;;;;;;12.13;9.27;;;5.10;99.90;;;;;;2602383;54;20035;31
2023/05/08 01:18:23;;;;;;;13.83;9.27;;;5.10;99.90;;;;;;2602319;54;20977;31
2023/05/08 01:21:03;;;;;;;12.48;8.73;;;5.00;99.90;;;;;;2602263;54;20888;31
2023/05/08 01:24:19;;;;;;;13.40;8.73;;;5.00;99.90;;;;;;2772933;31;20444;31
2023/05/08 01:29:59;;;;;;;12.30;9.38;;;5.00;99.90;;;;;;2619999;46;21047;31
2023/05/08 01:32:41;;;;;;;11.45;8.45;;;4.90;99.90;;;;;;2603201;54;20877;31
2023/05/08 01:35:19;;;;;;;11.63;8.65;;;4.90;99.90;;;;;;2621531;46;20027;31
2023/05/08 01:37:58;;;;;;;12.88;8.05;;;4.90;99.90;;;;;;2602970;54;20052;31
2023/05/08 01:40:36;;;;;;;13.70;8.60;;;4.80;99.90;;;;;;2602904;54;20124;31
2023/05/08 01:43:16;;;;;;;12.27;8.77;;;4.80;99.90;;;;;;2602997;54;20814;31
2023/05/08 01:45:53;;;;;;;11.10;8.05;;;4.80;99.90;;;;;;2621281;46;20078;31
2023/05/08 01:48:34;;;;;;;13.15;8.07;;;4.80;99.90;;;;;;2613826;46;20172;31
2023/05/08 01:51:15;;;;;;;12.23;8.60;;;4.70;99.90;;;;;;2601858;54;20042;31
2023/05/08 01:53:51;;;;;;;12.98;8.27;;;4.70;99.90;;;;;;2602238;54;20072;31
2023/05/08 01:56:30;;;;;;;10.70;7.40;;;4.70;99.90;;;;;;2602724;54;20801;31
2023/05/08 01:59:07;;;;;;;10.02;7.63;;;4.60;99.90;;;;;;2602974;54;20966;31
2023/05/08 02:01:42;;;;;;;11.80;8.85;;;4.60;99.90;;;;;;2602924;54;22247;31
2023/05/08 02:04:23;;;;;;;11.73;8.48;;;4.60;99.90;;;;;;2602773;54;20867;31
2023/05/08 02:06:59;;;;;;;10.35;7.93;;;4.60;99.90;;;;;;2602749;54;20109;31
2023/05/08 02:09:36;;;;;;;10.27;7.43;;;4.50;99.90;;;;;;2619745;46;20077;31
2023/05/08 02:12:12;;;;;;;10.48;7.53;;;4.50;99.90;;;;;;2603009;54;20050;31
2023/05/08 02:14:48;;;;;;;12.87;8.63;;;4.50;99.90;;;;;;2602812;54;20030;31
2023/05/08 02:17:23;;;;;;;15.55;7.72;;;4.50;99.90;;;;;;2602651;54;20030;31
2023/05/08 02:20:04;;;;;;;12.90;7.17;;;4.40;99.90;;;;;;2602715;54;21476;31
2023/05/08 02:22:39;;;;;;;13.30;7.95;;;4.40;99.90;;;;;;2602675;54;21554;31
2023/05/08 02:25:19;;;;;;;8.82;6.35;;;4.40;99.90;;;;;;2602656;54;20026;31
2023/05/08 02:27:55;;;;;;;13.23;8.38;;;4.40;99.90;;;;;;2602721;54;20836;31
2023/05/08 02:30:30;;;;;;;10.68;7.82;;;4.30;99.90;;;;;;2621477;46;20880;31
2023/05/08 02:33:06;;;;;;;11.38;7.85;;;4.30;99.90;;;;;;2602948;54;20057;31
2023/05/08 02:35:46;;;;;;;11.70;8.23;;;4.20;99.90;;;;;;2621025;47;19960;31
2023/05/08 02:38:24;;;;;;;9.70;7.60;;;4.30;99.90;;;;;;2602635;54;20054;31
2023/05/08 02:41:02;;;;;;;11.40;7.88;;;4.20;99.90;;;;;;2602044;54;20050;31
2023/05/08 02:43:41;;;;;;;13.55;8.30;;;4.20;99.90;;;;;;2602052;54;20832;31
2023/05/08 02:46:16;;;;;;;12.25;7.80;;;4.10;99.90;;;;;;2620703;47;20018;31
2023/05/08 02:49:01;;;;;;;13.15;8.27;;;4.10;99.90;;;;;;2602731;54;20030;31
2023/05/08 02:51:49;;;;;;;12.05;7.70;;;4.10;99.90;;;;;;2602727;54;20847;31
2023/05/08 02:54:27;;;;;;;12.30;7.90;;;4.00;99.90;;;;;;2602731;54;20034;31
2023/05/08 02:57:07;;;;;;;10.73;7.18;;;4.00;99.90;;;;;;2602621;54;20097;31
2023/05/08 02:59:41;;;;;;;11.70;7.82;;;4.00;99.90;;;;;;2602716;54;20053;31
2023/05/08 03:02:27;;;;;;;10.02;7.50;;;4.00;99.90;;;;;;2603081;54;20089;31
2023/05/08 03:05:08;;;;;;;9.70;7.27;;;4.00;99.90;;;;;;2603671;54;20026;31
2023/05/08 03:07:52;;;;;;;11.80;8.27;;;3.90;99.90;;;;;;2602658;54;20054;31
2023/05/08 03:10:31;;;;;;;8.77;6.28;;;3.90;99.90;;;;;;2603310;54;20890;31
2023/05/08 03:13:08;;;;;;;10.45;6.75;;;3.90;99.90;;;;;;2603406;54;20803;31
2023/05/08 03:15:48;;;;;;;10.40;7.97;;;3.90;99.90;;;;;;2603401;54;20029;31
2023/05/08 03:18:29;;;;;;;7.67;5.27;;;3.90;99.90;;;;;;2602493;54;20053;31
2023/05/08 03:21:05;;;;;;;14.57;7.43;;;3.90;99.90;;;;;;2602653;54;20053;31
2023/05/08 03:23:48;;;;;;;13.10;7.45;;;3.90;99.90;;;;;;2603301;54;20093;31
2023/05/08 03:26:24;;;;;;;11.90;7.00;;;3.80;99.90;;;;;;2621519;46;20881;31
2023/05/08 03:28:57;;;;;;;;;;;3.80;99.90;;;;;;2619316;39;21415;31
2023/05/08 03:31:38;;;;;;;10.55;6.85;;;3.90;99.90;;;;;;2603373;54;19942;31
2023/05/08 03:34:15;;;;;;;12.93;8.30;;;3.80;99.90;;;;;;2603607;54;20026;31
2023/05/08 03:36:50;;;;;;;11.00;7.85;;;3.90;99.90;;;;;;2603144;54;20038;31
2023/05/08 03:39:29;;;;;;;12.05;7.10;;;3.90;99.90;;;;;;2603561;54;20165;31
2023/05/08 03:42:07;;;;;;;8.80;7.30;;;3.90;99.90;;;;;;2622378;46;20664;31
2023/05/08 03:44:44;;;;;;;11.43;7.50;;;3.90;99.90;;;;;;2603284;54;20033;31
2023/05/08 03:47:23;;;;;;;8.23;6.20;;;4.00;99.90;;;;;;2621955;46;20049;31
2023/05/08 03:49:58;;;;;;;10.50;7.70;;;4.00;99.90;;;;;;2603385;54;20771;31
2023/05/08 03:52:35;;;;;;;9.50;7.10;;;4.20;99.90;;;;;;2603593;54;20027;31
2023/05/08 03:55:09;;;;;;;10.10;7.55;;;4.30;99.90;;;;;;2621750;46;20268;31
2023/05/08 03:57:53;;;;;;;11.30;7.20;;;4.40;99.90;;;;;;2621608;46;20949;31
2023/05/08 04:00:34;;;;;;;11.00;7.10;;;4.60;99.90;;;;;;2603394;54;20056;31
2023/05/08 04:03:23;;;;;;;9.47;7.10;;;4.80;99.90;;;;;;2603184;54;20053;31
2023/05/08 04:06:02;;;;;;;11.75;7.75;;;5.00;99.90;;;;;;2603599;54;19942;31
2023/05/08 04:08:46;;;;;;;11.38;6.15;;;5.20;99.90;;;;;;2607489;46;20865;31
2023/05/08 04:11:26;;;;;;;9.10;6.65;;;5.30;99.90;;;;;;2603320;54;22350;31
2023/05/08 04:14:08;;;;;;;9.48;6.57;;;5.50;99.90;;;;;;2608969;46;20109;31
2023/05/08 04:16:50;;;;;;;12.02;6.68;;;5.70;99.90;;;;;;2603475;54;20161;31
2023/05/08 04:19:24;;;;;;;12.32;7.10;;;5.80;99.90;;;;;;2621507;46;20023;31
2023/05/08 04:22:01;;;;;;;9.18;6.70;;;6.00;99.90;;;;;;2603379;54;20187;31
2023/05/08 04:24:39;;;;;;;9.25;6.55;;;6.20;99.90;;;;;;2603090;54;20946;31
2023/05/08 04:27:18;;;;;;;9.35;7.20;;;6.40;99.90;;;;;;2621865;46;20026;31
2023/05/08 04:29:59;;;;;;;8.38;6.47;;;6.60;99.90;;;;;;2603413;54;20026;31
2023/05/08 04:32:38;;;;;;;11.00;6.00;;;6.80;99.90;;;;;;2603191;54;20030;31
2023/05/08 04:35:20;;;;;;;9.50;6.50;;;7.00;99.90;;;;;;2603322;54;20100;31
2023/05/08 04:37:58;;;;;;;9.05;6.75;;;7.10;99.90;;;;;;2603264;54;19941;31
2023/05/08 04:40:33;;;;;;;8.07;6.57;;;7.30;99.90;;;;;;2621374;46;20031;31
2023/05/08 04:43:10;;;;;;;9.40;6.55;;;7.50;99.90;;;;;;2621867;46;20030;31
2023/05/08 04:45:49;;;;;;;9.63;5.97;;;7.70;99.90;;;;;;2603399;54;20038;31
2023/05/08 04:48:24;;;;;;;11.32;5.30;;;7.90;99.90;;;;;;2602475;54;20092;31
2023/05/08 04:51:03;;;;;;;8.30;5.03;;;8.20;99.90;;;;;;2602689;54;20855;31
2023/05/08 04:53:38;;;;;;;6.40;4.82;;;8.40;99.90;;;;;;2602448;54;20963;31
2023/05/08 04:56:18;;;;;;;6.63;4.93;;;8.70;99.90;;;;;;2618920;46;20959;31
2023/05/08 04:58:55;;;;;;;9.13;5.20;;;8.90;99.90;;;;;;2621924;46;20297;31
2023/05/08 05:01:35;;;;;;;8.00;5.63;;;9.20;99.90;;;;;;2603298;54;20034;31
2023/05/08 05:04:13;;;;;;;8.40;5.45;;;9.30;99.90;;;;;;2621888;46;20081;31
2023/05/08 05:06:49;;;;;;;6.82;5.40;;;9.40;99.90;;;;;;2622119;46;20033;31
2023/05/08 05:09:28;;;;;;;8.93;5.20;;;9.50;99.90;;;;;;2602613;54;20932;31
2023/05/08 05:12:06;;;;;;;7.63;4.95;;;9.60;99.90;;;;;;2602503;54;20893;31
2023/05/08 05:14:44;;;;;;;6.43;4.50;;;9.90;99.90;;;;;;2621602;46;20375;31
2023/05/08 05:17:20;;;;;;;6.20;5.28;;;10.00;99.90;;;;;;2621512;46;20049;31
2023/05/08 05:20:02;;;;;;;14.65;8.70;;;10.10;99.90;;;;;;2602395;54;20053;31
2023/05/08 05:22:39;;;;;;;11.10;5.97;;;10.10;99.90;;;;;;2603133;54;19935;31
2023/05/08 05:25:19;;;;;;;7.35;5.35;;;10.00;99.90;;;;;;2603105;54;20933;31
2023/05/08 05:27:56;;;;;;;6.53;4.50;;;9.90;99.90;;;;;;2621608;46;20030;31
2023/05/08 05:30:35;;;;;;;6.87;4.37;;;10.00;99.90;;;;;;2603152;54;20038;31
2023/05/08 05:33:12;;;;;;;13.50;6.60;;;10.10;99.90;;;;;;2621542;46;20038;31
2023/05/08 05:35:57;;;;;;;6.72;5.40;;;10.30;99.90;;;;;;2602505;54;20899;31
2023/05/08 05:38:34;;;;;;;8.27;5.65;;;10.30;99.90;;;;;;2602162;54;20882;31
2023/05/08 05:41:12;;;;;;;7.03;4.65;;;10.60;99.90;;;;;;2602562;54;20030;31
2023/05/08 05:43:49;;;;;;;10.07;4.68;;;10.60;99.90;;;;;;2603036;54;20057;31
2023/05/08 05:46:31;;;;;;;6.50;4.60;;;10.80;99.90;;;;;;2603024;54;20898;31
2023/05/08 05:49:14;;;;;;;13.90;5.25;;;11.00;99.90;;;;;;2602954;54;20835;31
2023/05/08 05:52:01;;;;;;;7.15;4.60;;;11.00;99.90;;;;;;2603104;54;20029;31
2023/05/08 05:54:41;;;;;;;8.40;4.50;;;11.30;99.90;;;;;;2603105;54;20113;31
2023/05/08 05:57:25;;;;;;;9.80;5.15;;;11.30;99.90;;;;;;2621354;46;20023;31
2023/05/08 06:00:04;;;;;;;7.80;5.23;;;11.40;99.90;;;;;;2621160;46;20022;31
2023/05/08 06:02:48;;;;;;;7.55;4.90;;;11.60;99.90;;;;;;2701726;39;22434;31
2023/05/08 06:05:25;;;;;;;6.53;4.63;;;11.90;99.90;;;;;;2621205;46;20920;31
2023/05/08 06:08:11;;;;;;;10.35;5.60;;;12.10;99.90;;;;;;2603036;54;20026;31
2023/05/08 06:10:50;;;;;;;7.90;5.22;;;12.30;99.90;;;;;;2602845;54;20047;31
2023/05/08 06:13:27;;;;;;;7.68;4.72;;;12.20;99.90;;;;;;2602973;54;20030;31
2023/05/08 06:16:06;;;;;;;7.28;4.88;;;12.50;99.90;;;;;;2659829;39;21391;31
2023/05/08 06:18:46;;;;;;;9.75;5.38;;;12.70;99.90;;;;;;2603076;54;20051;31
2023/05/08 06:21:28;;;;;;;5.95;4.75;;;12.80;99.90;;;;;;2613742;46;20816;31
2023/05/08 06:24:08;;;;;;;6.40;5.03;;;13.10;99.90;;;;;;2602277;54;21223;31
2023/05/08 06:26:45;;;;;;;7.05;4.70;;;13.20;99.90;;;;;;2603212;54;20038;31
2023/05/08 06:29:25;;;;;;;7.18;4.95;;;13.30;99.90;;;;;;2602808;54;20875;31
2023/05/08 06:32:08;;;;;;;9.38;4.63;;;13.40;99.90;;;;;;2602138;54;20038;31
2023/05/08 06:34:48;;;;;;;6.83;5.20;;;13.30;99.90;;;;;;2602854;54;20893;31
2023/05/08 06:37:24;;;;;;;5.28;4.65;;;13.30;99.90;;;;;;2617134;47;20030;31
2023/05/08 06:40:03;;;;;;;124.90;81.30;;;13.60;99.90;;;;;;2604556;54;20101;31
2023/05/08 06:42:47;;;;;;;11.10;8.33;;;13.80;99.90;;;;;;2604540;54;20029;31
2023/05/08 06:45:23;;;;;;;8.15;4.97;;;14.10;99.90;;;;;;2623227;46;20038;31
2023/05/08 06:48:01;;;;;;;6.20;4.80;;;14.20;99.90;;;;;;2604554;54;20033;31
2023/05/08 06:50:41;;;;;;;7.47;4.67;;;14.30;99.90;;;;;;2604584;54;20098;31
2023/05/08 06:53:21;;;;;;;7.85;4.75;;;14.20;99.90;;;;;;2604512;54;21481;31
2023/05/08 06:56:01;;;;;;;7.93;5.05;;;14.30;99.90;;;;;;2623039;46;20525;31
2023/05/08 06:58:40;;;;;;;6.05;4.45;;;14.40;99.90;;;;;;2604639;54;20030;31
2023/05/08 07:01:28;;;;;;;6.30;4.70;;;14.40;99.90;;;;;;2623220;46;20065;31
2023/05/08 07:04:07;;;;;;;9.77;4.93;;;14.50;99.90;;;;;;2614621;31;25258;31
2023/05/08 07:06:51;;;;;;;6.60;4.80;;;14.60;99.90;;;;;;2623482;46;20034;31
2023/05/08 07:09:36;;;;;;;5.10;3.90;;;14.60;99.90;;;;;;2622768;46;20900;31
2023/05/08 07:12:18;;;;;;;6.45;4.00;;;14.60;99.90;;;;;;2604739;54;21525;31
2023/05/08 07:14:56;;;;;;;7.88;4.03;;;14.60;99.90;;;;;;2604723;54;20823;31
2023/05/08 07:17:57;;;;;;;4.80;3.60;;;14.70;99.90;;;;;;2604603;54;20027;31
2023/05/08 07:23:14;;;;;;;8.05;4.95;;;14.90;99.90;;;;;;2604334;54;20914;31
2023/05/08 07:25:54;;;;;;;8.50;6.00;;;14.90;99.90;;;;;;2603938;54;20565;31
2023/05/08 07:28:35;;;;;;;7.57;4.33;;;15.00;99.90;;;;;;2623408;46;20089;31
2023/05/08 07:31:13;;;;;;;4.43;4.00;;;15.00;99.90;;;;;;2603830;54;20034;31
2023/05/08 07:33:50;;;;;;;7.03;4.33;;;15.10;99.90;;;;;;2610375;39;21431;31
2023/05/08 07:36:29;;;;;;;10.75;4.55;;;15.40;99.90;;;;;;2690905;38;20317;31
2023/05/08 07:39:10;;;;;;;3.80;3.35;;;15.30;99.90;;;;;;2604457;54;20763;31
2023/05/08 07:41:50;;;;;;;6.22;3.63;;;15.40;99.90;;;;;;2604481;54;21175;31
2023/05/08 07:44:31;;;;;;;8.00;3.35;;;15.50;99.90;;;;;;2622769;46;20037;31
2023/05/08 07:47:18;;;;;;;5.43;3.83;;;15.50;99.90;;;;;;2604325;54;20098;31
2023/05/08 07:50:01;;;;;;;5.10;3.75;;;15.40;99.90;;;;;;2602556;54;20032;31
2023/05/08 07:52:47;;;;;;;4.50;3.30;;;15.30;99.90;;;;;;2603319;54;20069;31
2023/05/08 07:55:35;;;;;;;3.97;3.17;;;15.20;99.90;;;;;;2602607;54;20424;31
2023/05/08 07:58:14;;;;;;;3.70;2.97;;;14.90;99.90;;;;;;2602473;54;20026;31
2023/05/08 08:00:57;;;;;;;6.97;2.93;;;14.90;99.90;;;;;;2602174;54;20030;31
2023/05/08 08:03:34;;;;;;;5.90;3.75;;;14.80;99.90;;;;;;2602867;54;20026;31
2023/05/08 08:06:11;;;;;;;6.07;3.58;;;14.70;99.90;;;;;;2602460;54;20131;31
2023/05/08 08:08:49;;;;;;;3.83;2.70;;;14.40;99.90;;;;;;2603392;54;20483;31
2023/05/08 08:11:35;;;;;;;4.45;3.20;;;14.50;99.90;;;;;;2634615;39;20346;31
2023/05/08 08:14:15;;;;;;;4.68;2.83;;;14.50;99.90;;;;;;2603805;54;20045;31
2023/05/08 08:16:57;;;;;;;4.75;3.38;;;14.50;99.90;;;;;;2621842;46;20754;31
2023/05/08 08:19:37;;;;;;;4.75;3.40;;;14.40;99.90;;;;;;2603368;54;20052;31
2023/05/08 08:22:17;;;;;;;3.92;3.35;;;14.50;99.90;;;;;;2621828;46;20025;31
2023/05/08 08:25:03;;;;;;;16.20;10.25;;;14.50;99.90;;;;;;2603594;54;20891;31
2023/05/08 08:27:42;;;;;;;4.53;3.60;;;14.50;99.90;;;;;;2603350;54;20786;31
2023/05/08 08:30:19;;;;;;;5.60;3.40;;;14.60;99.90;;;;;;2603218;54;20239;31
2023/05/08 08:33:01;;;;;;;7.38;3.55;;;14.70;99.90;;;;;;2610619;46;20878;31
2023/05/08 08:35:41;;;;;;;5.55;3.33;;;14.80;99.90;;;;;;2602587;54;20025;31
2023/05/08 08:38:21;;;;;;;7.03;3.38;;;14.90;99.90;;;;;;2602434;54;20030;31
2023/05/08 08:41:00;;;;;;;5.13;2.90;;;15.20;99.90;;;;;;2621714;46;20101;31
2023/05/08 08:43:42;;;;;;;8.45;3.47;;;15.30;99.90;;;;;;2603289;54;20057;31
2023/05/08 08:46:18;;;;;;;5.00;3.30;;;15.30;99.90;;;;;;2603327;54;20925;31
2023/05/08 08:49:01;;;;;;;6.68;2.97;;;15.30;99.90;;;;;;2603412;54;20841;31
2023/05/08 08:51:50;;;;;;;4.87;3.07;;;15.40;99.90;;;;;;2603318;54;20052;31
2023/05/08 08:54:34;;;;;;;5.70;2.80;;;15.70;99.90;;;;;;2626210;39;21452;31
2023/05/08 08:57:12;;;;;;;3.05;2.60;;;15.80;99.90;;;;;;2602334;54;20104;31
2023/05/08 08:59:48;;;;;;;5.37;2.83;;;15.60;99.90;;;;;;2618154;46;20207;31
2023/05/08 09:02:25;;;;;;;5.38;2.72;;;15.80;99.90;;;;;;2603223;54;20105;31
2023/05/08 09:05:04;;;;;;;4.17;2.57;;;15.90;99.90;;;;;;2621595;46;20133;31
2023/05/08 09:07:44;;;;;;;6.45;3.42;;;15.90;99.90;;;;;;2602515;54;20029;31
2023/05/08 09:10:31;;;;;;;4.80;2.85;;;16.00;99.90;;;;;;2621804;39;21402;31
2023/05/08 09:13:06;;;;;;;6.23;3.13;;;16.10;99.90;;;;;;2603339;54;20113;31
2023/05/08 09:15:47;;;;;;;4.53;2.50;;;16.20;99.90;;;;;;2621897;46;20093;31
2023/05/08 09:18:26;;;;;;;4.13;2.80;;;16.10;99.40;;;;;;2603135;54;20165;31
2023/05/08 09:21:12;;;;;;;4.90;2.90;;;16.10;99.90;;;;;;2603087;54;20868;31
2023/05/08 09:23:59;;;;;;;3.50;2.85;;;15.90;99.00;;;;;;2603160;54;20030;31
2023/05/08 09:26:36;;;;;;;7.80;2.67;;;15.90;99.90;;;;;;2603228;54;20042;31
2023/05/08 09:29:13;;;;;;;4.40;3.30;;;15.90;99.20;;;;;;2621701;46;20903;31
2023/05/08 09:31:50;;;;;;;5.95;3.45;;;15.90;99.70;;;;;;2621140;46;20026;31
2023/05/08 09:34:27;;;;;;;4.65;3.67;;;16.00;99.90;;;;;;2603223;54;20046;31
2023/05/08 09:37:19;;;;;;;4.45;3.50;;;15.90;99.90;;;;;;2621588;46;20038;31
2023/05/08 09:39:57;;;;;;;6.00;3.88;;;15.60;99.90;;;;;;2692243;31;20049;31
2023/05/08 09:42:34;;;;;;;10.90;4.50;;;15.60;99.90;;;;;;2603225;54;20069;31
2023/05/08 09:45:14;;;;;;;8.45;3.95;;;15.60;99.90;;;;;;2621616;46;20062;31
2023/05/08 09:47:54;;;;;;;5.80;4.03;;;15.50;99.90;;;;;;2620973;46;20022;31
2023/05/08 09:50:40;;;;;;;5.55;4.00;;;15.50;99.90;;;;;;2603120;54;20026;31
2023/05/08 09:53:21;;;;;;;7.30;3.78;;;15.50;99.90;;;;;;2659229;39;20544;31
2023/05/08 09:56:02;;;;;;;5.35;4.13;;;15.70;99.90;;;;;;2603165;54;20033;31
2023/05/08 09:58:46;;;;;;;4.93;4.00;;;15.60;99.90;;;;;;2621610;46;20046;31
2023/05/08 10:01:21;;;;;;;8.15;4.85;;;15.80;99.90;;;;;;2603150;54;20023;31
2023/05/08 10:04:00;;;;;;;9.80;4.38;;;15.90;99.90;;;;;;2643900;39;20908;31
2023/05/08 10:06:39;;;;;;;4.80;4.30;;;16.00;99.90;;;;;;2602116;54;20850;31
2023/05/08 10:09:23;;;;;;;6.30;4.30;;;16.10;99.90;;;;;;2602339;54;20668;31
2023/05/08 10:12:07;;;;;;;5.70;4.45;;;16.00;99.90;;;;;;2602107;54;21206;31
2023/05/08 10:14:43;;;;;;;6.45;4.35;;;15.90;99.90;;;;;;2621396;46;20034;31
2023/05/08 10:17:35;;;;;;;5.10;4.35;;;15.90;99.90;;;;;;2602999;54;20131;31
2023/05/08 10:20:33;;;;;;;5.57;4.23;;;15.90;99.90;;;;;;2602924;54;20816;31
2023/05/08 10:23:13;;;;;;;9.52;4.47;;;15.90;99.90;;;;;;2603045;54;21176;31
2023/05/08 10:25:55;;;;;;;5.70;4.55;;;15.90;99.90;;;;;;2603061;54;20033;31
2023/05/08 10:28:35;;;;;;;6.80;5.53;;;15.70;99.90;;;;;;2620661;46;20887;31
2023/05/08 10:31:14;;;;;;;5.80;4.90;;;15.50;99.90;;;;;;2602073;54;20862;31
2023/05/08 10:33:51;;;;;;;8.32;4.88;;;15.60;99.90;;;;;;2621235;46;20034;31
2023/05/08 10:36:27;;;;;;;;;;;15.60;99.90;;;;;;2621678;46;20391;31
2023/05/08 10:39:05;;;;;;;5.80;5.15;;;15.60;99.90;;;;;;2602870;54;20835;31
2023/05/08 10:42:00;;;;;;;6.68;5.13;;;15.60;99.90;;;;;;2602702;54;20953;31
2023/05/08 10:44:36;;;;;;;9.05;5.35;;;15.70;99.90;;;;;;2603047;54;19934;31
2023/05/08 10:47:17;;;;;;;4.75;4.28;;;15.70;99.90;;;;;;2602815;54;20030;31
2023/05/08 10:49:57;;;;;;;6.37;5.47;;;15.60;99.90;;;;;;2601800;54;20116;31
2023/05/08 10:52:35;;;;;;;5.60;4.38;;;15.60;99.90;;;;;;2621246;47;20518;31
2023/05/08 10:55:18;;;;;;;7.22;4.82;;;15.60;99.90;;;;;;2618703;39;21482;31
2023/05/08 10:57:57;;;;;;;5.65;4.65;;;15.50;99.90;;;;;;2602688;54;20026;31
2023/05/08 11:00:54;;;;;;;7.05;5.00;;;15.60;99.90;;;;;;2602608;54;21398;31
2023/05/08 11:03:31;;;;;;;8.63;4.63;;;15.50;99.90;;;;;;2621332;47;20030;31
2023/05/08 11:06:09;;;;;;;9.70;5.10;;;15.70;99.90;;;;;;2602412;54;20038;31
2023/05/08 11:08:50;;;;;;;6.18;4.50;;;15.60;99.90;;;;;;2602642;54;20893;31
2023/05/08 11:11:32;;;;;;;6.85;5.20;;;15.60;99.90;;;;;;2602757;54;20022;31
2023/05/08 11:14:15;;;;;;;4.70;4.20;;;15.60;99.90;;;;;;2604739;47;20030;31
2023/05/08 11:17:09;;;;;;;5.13;4.63;;;15.50;99.90;;;;;;2602821;54;19958;31
2023/05/08 11:19:59;;;;;;;8.00;4.78;;;15.40;99.90;;;;;;2602667;54;20411;31
2023/05/08 11:22:39;;;;;;;4.70;3.77;;;15.40;99.90;;;;;;2602928;54;20781;31
2023/05/08 11:25:15;;;;;;;7.47;4.45;;;15.50;99.90;;;;;;2603432;54;20615;31
2023/05/08 11:28:15;;;;;;;10.23;4.63;;;15.60;99.90;;;;;;2622079;46;20022;31
2023/05/08 11:30:55;;;;;;;5.97;3.83;;;15.70;99.90;;;;;;2603452;54;20029;31
2023/05/08 11:33:40;;;;;;;7.00;3.80;;;15.60;99.90;;;;;;2621768;46;20461;31
2023/05/08 11:36:16;;;;;;;5.57;4.53;;;15.70;99.90;;;;;;2622001;46;20033;31
2023/05/08 11:39:11;;;;;;;6.05;5.28;;;15.60;99.90;;;;;;2603178;54;20881;31
2023/05/08 11:41:47;;;;;;;5.47;4.38;;;15.70;99.90;;;;;;2603418;54;20034;31
2023/05/08 11:44:23;;;;;;;6.63;4.40;;;15.70;99.90;;;;;;2603569;54;20770;31
2023/05/08 11:47:00;;;;;;;5.28;4.70;;;15.70;99.90;;;;;;2608420;39;20453;31
2023/05/08 11:49:39;;;;;;;5.60;4.40;;;15.60;99.90;;;;;;2603391;54;20577;31
2023/05/08 11:52:20;;;;;;;6.25;4.50;;;15.50;99.90;;;;;;2603540;54;20099;31
2023/05/08 11:54:58;;;;;;;5.65;4.30;;;15.40;99.90;;;;;;2649733;39;21311;31
2023/05/08 11:57:35;;;;;;;5.77;4.13;;;15.40;99.90;;;;;;2647946;39;20371;31
2023/05/08 12:00:16;;;;;;;5.15;3.85;;;15.40;99.90;;;;;;2621713;46;21149;31
2023/05/08 12:02:54;;;;;;;4.00;3.23;;;15.40;99.90;;;;;;2603334;54;20876;31
2023/05/08 12:05:35;;;;;;;5.40;4.15;;;15.30;99.90;;;;;;2603447;54;20979;31
2023/05/08 12:08:11;;;;;;;7.35;4.28;;;15.30;99.90;;;;;;2603236;54;20040;31
2023/05/08 12:10:55;;;;;;;5.28;3.92;;;15.20;99.90;;;;;;2603342;54;20099;31
2023/05/08 12:13:31;;;;;;;5.60;3.50;;;15.20;99.90;;;;;;2603199;54;20783;31
2023/05/08 12:16:14;;;;;;;3.53;2.92;;;15.20;99.90;;;;;;2622047;46;20284;31
2023/05/08 12:18:51;;;;;;;5.55;3.60;;;15.20;99.90;;;;;;2621832;46;20031;31
2023/05/08 12:21:32;;;;;;;5.00;3.75;;;15.20;99.90;;;;;;2608327;39;20543;31
2023/05/08 12:24:09;;;;;;;7.18;3.78;;;15.10;99.90;;;;;;2603032;54;20873;31
2023/05/08 12:26:46;;;;;;;4.78;3.20;;;15.10;99.90;;;;;;2614284;46;20113;31
2023/05/08 12:29:27;;;;;;;4.63;3.07;;;15.10;99.90;;;;;;2603457;54;20031;31
2023/05/08 12:32:02;;;;;;;5.00;3.28;;;15.10;99.90;;;;;;2603353;54;20251;31
2023/05/08 12:34:38;;;;;;;5.80;3.07;;;15.00;99.90;;;;;;2603027;54;19957;31
2023/05/08 12:40:35;;;;;;;4.35;3.08;;;14.90;99.90;;;;;;2610960;54;20042;31
2023/05/08 12:43:17;;;;;;;9.07;3.38;;;15.00;99.90;;;;;;2603228;54;20085;31
2023/05/08 12:45:59;;;;;;;5.82;2.97;;;14.90;99.90;;;;;;2603058;54;20104;31
2023/05/08 12:48:36;;;;;;;7.03;3.23;;;15.00;99.90;;;;;;2621854;46;20037;31
2023/05/08 12:51:13;;;;;;;4.43;3.00;;;15.00;99.90;;;;;;2602394;54;20093;31
2023/05/08 12:53:52;;;;;;;4.90;2.70;;;15.10;99.90;;;;;;2602298;54;20945;31
2023/05/08 12:56:32;;;;;;;6.18;2.97;;;15.10;99.90;;;;;;2602964;54;20871;31
2023/05/08 12:59:11;;;;;;;4.47;3.05;;;15.10;99.90;;;;;;2614094;46;20888;31
2023/05/08 13:01:53;;;;;;;5.40;2.80;;;15.10;99.90;;;;;;2621624;46;20138;31
2023/05/08 13:04:32;;;;;;;5.15;2.83;;;15.10;99.90;;;;;;2608054;39;21457;31
2023/05/08 13:07:12;;;;;;;8.25;3.50;;;15.10;99.90;;;;;;2602320;54;20881;31
2023/05/08 13:10:01;;;;;;;4.43;2.88;;;15.10;99.90;;;;;;2603190;54;20046;31
2023/05/08 13:12:42;;;;;;;4.30;3.10;;;15.10;99.50;;;;;;2631731;39;20049;31
2023/05/08 13:15:22;;;;;;;4.38;2.67;;;15.00;99.90;;;;;;2603304;54;20862;31
2023/05/08 13:18:02;;;;;;;5.05;2.80;;;15.00;99.90;;;;;;2603098;54;20823;31
2023/05/08 13:20:39;;;;;;;5.70;3.13;;;14.90;99.90;;;;;;2602311;54;22605;31
2023/05/08 13:26:20;;;;;;;3.85;2.60;;;15.00;99.90;;;;;;2602958;54;20026;31
2023/05/08 13:28:56;;;;;;;5.90;2.55;;;15.00;99.90;;;;;;2602139;54;20041;31
2023/05/08 13:31:38;;;;;;;9.73;2.97;;;15.00;99.90;;;;;;2603175;54;20053;31
2023/05/08 13:34:17;;;;;;;5.30;2.60;;;15.00;99.60;;;;;;2602135;54;20838;31
2023/05/08 13:36:56;;;;;;;4.30;2.60;;;15.00;99.90;;;;;;2602209;54;20465;31
2023/05/08 13:39:36;;;;;;;5.70;2.90;;;15.00;99.90;;;;;;2713466;31;21342;31
2023/05/08 13:42:14;;;;;;;3.45;2.30;;;15.10;99.90;;;;;;2602821;54;20744;31
2023/05/08 13:44:51;;;;;;;5.50;2.63;;;15.10;99.60;;;;;;2602949;54;21095;31
2023/05/08 13:47:32;;;;;;;4.28;2.67;;;15.10;99.90;;;;;;2603063;54;20906;31
2023/05/08 13:50:20;;;;;;;7.50;3.00;;;15.10;98.90;;;;;;2603101;54;20030;31
2023/05/08 13:52:56;;;;;;;5.47;2.45;;;15.10;99.40;;;;;;2602837;54;20030;31
2023/05/08 13:55:39;;;;;;;6.53;2.60;;;15.10;99.30;;;;;;2602841;54;20902;31
2023/05/08 14:00:54;;;;;;;5.93;2.63;;;15.00;99.10;;;;;;2639459;39;21163;31
2023/05/08 14:03:33;;;;;;;5.13;2.95;;;15.10;99.90;;;;;;2602744;54;20877;31
2023/05/08 14:06:10;;;;;;;4.75;2.72;;;15.10;99.20;;;;;;2602809;54;20879;31
2023/05/08 14:08:47;;;;;;;4.95;2.30;;;15.20;98.80;;;;;;2603050;54;20875;31
2023/05/08 14:11:29;;;;;;;3.88;2.40;;;15.10;98.80;;;;;;2602975;54;20037;31
2023/05/08 14:14:05;;;;;;;5.20;2.60;;;15.10;99.70;;;;;;2602881;54;20894;31
2023/05/08 14:16:41;;;;;;;4.80;2.80;;;15.20;99.60;;;;;;2603069;54;20851;31
2023/05/08 14:19:26;;;;;;;3.13;2.57;;;15.20;99.10;;;;;;2621278;46;20626;31
2023/05/08 14:22:02;;;;;;;5.63;2.40;;;15.20;98.20;;;;;;2621381;46;20026;31